createdAt,value
2023-01-04T00:02:27.040Z,9.26
2023-01-04T00:04:55.018Z,8.10
2023-01-04T00:07:23.869Z,7.09
2023-01-04T00:09:51.943Z,6.38
2023-01-04T00:12:20.202Z,6.28
2023-01-04T00:14:48.413Z,8.05
2023-01-04T00:17:16.658Z,9.16
2023-01-04T00:19:45.028Z,8.11
2023-01-04T00:22:13.109Z,7.07
2023-01-04T00:24:41.129Z,6.41
2023-01-04T00:27:09.158Z,7.40
2023-01-04T00:29:37.285Z,9.15
2023-01-04T00:32:05.484Z,8.71
2023-01-04T00:34:33.368Z,7.55
2023-01-04T00:37:01.456Z,6.70
2023-01-04T00:39:30.033Z,6.17
2023-01-04T00:42:05.381Z,7.30
2023-01-04T00:44:35.029Z,8.86
2023-01-04T00:47:04.446Z,8.05
2023-01-04T00:49:32.975Z,7.01
2023-01-04T00:52:01.046Z,6.29
2023-01-04T00:54:29.127Z,7.06
2023-01-04T00:56:59.176Z,9.00
2023-01-04T00:59:28.163Z,9.68
2023-01-04T01:01:57.360Z,8.44
2023-01-04T01:04:26.029Z,7.37
2023-01-04T01:06:54.622Z,6.63
2023-01-04T01:09:23.373Z,7.20
2023-01-04T01:11:53.395Z,9.03
2023-01-04T01:14:25.418Z,8.76
2023-01-04T01:16:57.333Z,7.59
2023-01-04T01:19:30.242Z,6.72
2023-01-04T01:21:58.598Z,6.18
2023-01-04T01:24:27.527Z,7.28
2023-01-04T01:26:56.091Z,8.72
2023-01-04T01:29:25.158Z,7.94
2023-01-04T01:31:53.507Z,6.89
2023-01-04T01:34:21.729Z,6.14
2023-01-04T01:36:49.732Z,6.57
2023-01-04T01:39:17.813Z,8.51
2023-01-04T01:41:46.098Z,8.44
2023-01-04T01:44:14.118Z,7.29
2023-01-04T01:46:45.997Z,6.43
2023-01-04T01:49:31.293Z,6.47
2023-01-04T01:52:02.892Z,8.54
2023-01-04T01:54:39.627Z,8.79
2023-01-04T01:57:11.419Z,7.51
2023-01-04T01:59:41.337Z,6.59
2023-01-04T02:02:09.615Z,6.58
2023-01-04T02:04:40.964Z,8.45
2023-01-04T02:07:10.256Z,9.48
2023-01-04T02:09:38.456Z,8.38
2023-01-04T02:12:12.353Z,7.31
2023-01-04T02:14:43.429Z,6.94
2023-01-04T02:18:06.008Z,8.61
2023-01-04T02:21:45.185Z,9.43
2023-01-04T02:24:54.740Z,7.77
2023-01-04T02:27:58.318Z,6.81
2023-01-04T02:30:38.395Z,7.27
2023-01-04T02:33:23.551Z,9.37
2023-01-04T02:36:00.472Z,9.29
2023-01-04T02:38:43.044Z,8.06
2023-01-04T02:41:41.628Z,7.14
2023-01-04T02:44:35.796Z,7.34
2023-01-04T02:47:18.026Z,9.56
2023-01-04T02:50:05.661Z,9.54
2023-01-04T02:52:34.039Z,8.22
2023-01-04T02:55:04.887Z,7.38
2023-01-04T02:57:58.754Z,7.32
2023-01-04T03:01:10.856Z,9.48
2023-01-04T03:04:30.869Z,9.79
2023-01-04T03:07:11.979Z,8.24
2023-01-04T03:09:41.993Z,7.40
2023-01-04T03:12:32.599Z,7.71
2023-01-04T03:15:35.459Z,9.91
2023-01-04T03:18:16.414Z,10.00
2023-01-04T03:20:45.806Z,8.72
2023-01-04T03:23:35.794Z,7.83
2023-01-04T03:26:24.672Z,8.06
2023-01-04T03:29:12.293Z,10.19
2023-01-04T03:32:07.493Z,10.27
2023-01-04T03:34:54.212Z,8.89
2023-01-04T03:37:46.494Z,7.95
2023-01-04T03:40:42.971Z,8.27
2023-01-04T03:43:43.161Z,10.47
2023-01-04T03:46:36.361Z,10.13
2023-01-04T03:49:33.933Z,8.82
2023-01-04T03:52:04.249Z,7.91
2023-01-04T03:54:36.477Z,8.60
2023-01-04T03:57:05.945Z,10.48
2023-01-04T03:59:42.559Z,10.28
2023-01-04T04:02:14.799Z,9.05
2023-01-04T04:05:01.825Z,8.15
2023-01-04T04:07:49.383Z,7.48
2023-01-04T04:10:17.403Z,8.64
2023-01-04T04:12:45.375Z,10.20
2023-01-04T04:15:13.863Z,9.50
2023-01-04T04:17:41.986Z,8.41
2023-01-04T04:20:11.632Z,7.61
2023-01-04T04:22:40.084Z,7.55
2023-01-04T04:25:08.870Z,9.38
2023-01-04T04:27:36.857Z,10.41
2023-01-04T04:30:06.341Z,9.36
2023-01-04T04:32:34.335Z,8.27
2023-01-04T04:35:02.316Z,7.50
2023-01-04T04:37:32.243Z,7.59
2023-01-04T04:40:00.215Z,9.46
2023-01-04T04:42:28.214Z,10.47
2023-01-04T04:44:56.146Z,9.36
2023-01-04T04:47:24.189Z,8.22
2023-01-04T04:49:52.162Z,8.16
2023-01-04T04:52:20.253Z,9.92
2023-01-04T04:54:48.115Z,10.47
2023-01-04T04:57:16.012Z,9.23
2023-01-04T04:59:43.966Z,8.18
2023-01-04T05:02:12.071Z,7.84
2023-01-04T05:04:40.196Z,9.49
2023-01-04T05:07:12.429Z,10.55
2023-01-04T05:09:40.774Z,9.48
2023-01-04T05:12:31.069Z,8.41
2023-01-04T05:14:58.986Z,7.56
2023-01-04T05:17:26.911Z,8.33
2023-01-04T05:19:54.793Z,10.21
2023-01-04T05:22:22.682Z,10.46
2023-01-04T05:24:50.647Z,9.25
2023-01-04T05:27:19.197Z,8.23
2023-01-04T05:30:05.903Z,7.51
2023-01-04T05:32:34.164Z,8.30
2023-01-04T05:35:02.266Z,10.18
2023-01-04T05:37:30.303Z,10.05
2023-01-04T05:39:58.333Z,8.81
2023-01-04T05:42:26.534Z,7.89
2023-01-04T05:44:59.482Z,7.43
2023-01-04T05:47:30.435Z,8.96
2023-01-04T05:49:58.600Z,10.13
2023-01-04T05:52:28.020Z,9.17
2023-01-04T05:54:56.351Z,8.14
2023-01-04T06:00:19.680Z,8.14
2023-01-04T06:02:47.848Z,9.94
2023-01-04T06:05:22.173Z,9.60
2023-01-04T06:07:50.907Z,8.41
2023-01-04T06:10:20.117Z,7.53
2023-01-04T06:12:49.073Z,7.38
2023-01-04T06:15:17.334Z,9.04
2023-01-04T06:17:45.271Z,9.94
2023-01-04T06:20:13.256Z,8.91
2023-01-04T06:22:41.543Z,7.87
2023-01-04T06:25:10.648Z,7.16
2023-01-04T06:27:38.529Z,7.08
2023-01-04T06:30:08.857Z,8.74
2023-01-04T06:32:36.802Z,9.78
2023-01-04T06:35:05.682Z,8.77
2023-01-04T06:37:33.643Z,7.72
2023-01-04T06:40:01.535Z,7.00
2023-01-04T06:42:44.582Z,7.25
2023-01-04T06:45:14.926Z,9.31
2023-01-04T06:47:43.337Z,9.81
2023-01-04T06:50:11.980Z,8.62
2023-01-04T06:52:40.086Z,7.63
2023-01-04T06:55:09.786Z,6.95
2023-01-04T06:57:37.995Z,7.57
2023-01-04T07:00:09.165Z,9.49
2023-01-04T07:02:37.369Z,9.60
2023-01-04T07:05:06.657Z,8.41
2023-01-04T07:07:35.617Z,7.49
2023-01-04T07:10:09.423Z,6.85
2023-01-04T07:12:39.485Z,7.03
2023-01-04T07:15:37.117Z,8.99
2023-01-04T07:17:56.368Z,9.93
2023-01-04T07:20:26.064Z,8.80
2023-01-04T07:22:53.984Z,7.79
2023-01-04T07:25:22.407Z,7.17
2023-01-04T07:27:54.322Z,8.17
2023-01-04T07:30:23.958Z,10.03
2023-01-04T07:32:53.580Z,9.88
2023-01-04T07:35:22.773Z,8.73
2023-01-04T07:37:57.901Z,7.88
2023-01-04T07:40:28.071Z,7.74
2023-01-04T07:42:58.631Z,9.53
2023-01-04T07:45:27.927Z,10.53
2023-01-04T07:47:57.830Z,9.52
2023-01-04T07:50:26.035Z,8.52
2023-01-04T07:52:54.642Z,7.82
2023-01-04T07:55:22.916Z,7.61
2023-01-04T07:57:54.718Z,9.27
2023-01-04T08:00:23.433Z,10.36
2023-01-04T08:02:51.703Z,9.42
2023-01-04T08:05:20.096Z,8.47
2023-01-04T08:07:48.635Z,7.82
2023-01-04T08:10:16.952Z,7.82
2023-01-04T08:24:52.474Z,8.03
2023-01-04T08:27:20.436Z,9.75
2023-01-04T08:29:48.287Z,10.72
2023-01-04T08:32:16.255Z,9.75
2023-01-04T08:34:44.281Z,8.85
2023-01-04T08:37:12.259Z,8.21
2023-01-04T08:39:45.375Z,8.06
2023-01-04T08:42:24.705Z,9.81
2023-01-04T08:44:59.842Z,10.72
2023-01-04T08:47:29.983Z,9.73
2023-01-04T08:50:04.843Z,8.86
2023-01-04T08:52:38.132Z,8.21
2023-01-04T08:55:13.123Z,8.26
2023-01-04T08:57:42.601Z,10.17
2023-01-04T09:00:11.731Z,10.55
2023-01-04T09:02:40.067Z,9.58
2023-01-04T09:05:08.961Z,8.79
2023-01-04T09:07:37.323Z,8.23
2023-01-04T09:10:06.073Z,8.31
2023-01-04T09:12:34.127Z,10.17
2023-01-04T09:15:02.354Z,10.52
2023-01-04T09:17:30.364Z,9.57
2023-01-04T09:19:58.439Z,8.83
2023-01-04T09:22:27.008Z,8.29
2023-01-04T09:24:55.329Z,8.44
2023-01-04T09:27:23.372Z,10.28
2023-01-04T09:29:51.252Z,10.67
2023-01-04T09:32:19.192Z,9.71
2023-01-04T09:34:47.499Z,8.94
2023-01-04T09:37:15.674Z,8.43
2023-01-04T09:39:43.844Z,9.18
2023-01-04T09:42:37.881Z,10.95
2023-01-04T09:45:27.912Z,10.48
2023-01-04T09:48:21.617Z,9.44
2023-01-04T09:51:01.844Z,8.75
2023-01-04T09:53:58.637Z,8.52
2023-01-04T09:56:33.682Z,10.41
2023-01-04T09:59:07.556Z,10.81
2023-01-04T10:01:49.294Z,9.88
2023-01-04T10:04:40.668Z,9.14
2023-01-04T10:07:28.512Z,8.61
2023-01-04T10:09:57.101Z,9.00
2023-01-04T10:13:00.101Z,10.96
2023-01-04T10:15:31.112Z,11.15
2023-01-04T10:21:41.941Z,9.29
2023-01-04T10:24:19.297Z,8.74
2023-01-04T10:26:50.454Z,9.60
2023-01-04T10:29:59.382Z,11.34
2023-01-04T10:32:43.496Z,10.69
2023-01-04T10:35:33.609Z,9.78
2023-01-04T10:38:08.854Z,9.17
2023-01-04T10:40:39.866Z,8.78
2023-01-04T10:44:11.752Z,9.58
2023-01-04T10:46:50.462Z,11.33
2023-01-04T10:49:33.212Z,10.43
2023-01-04T10:52:53.651Z,9.66
2023-01-04T10:56:29.218Z,9.09
2023-01-04T10:59:07.475Z,9.96
2023-01-04T11:01:46.347Z,11.55
2023-01-04T11:04:39.746Z,10.87
2023-01-04T11:07:25.836Z,10.01
2023-01-04T11:10:17.888Z,9.50
2023-01-04T11:12:46.180Z,9.22
2023-01-04T11:15:14.412Z,10.53
2023-01-04T11:17:43.314Z,11.99
2023-01-04T11:20:11.896Z,11.34
2023-01-04T11:22:46.910Z,10.48
2023-01-04T11:25:36.224Z,9.87
2023-01-04T11:28:24.194Z,10.21
2023-01-04T11:31:36.849Z,12.22
2023-01-04T11:34:06.165Z,11.72
2023-01-04T11:36:39.105Z,10.78
2023-01-04T11:39:26.989Z,10.53
2023-01-04T11:42:02.965Z,12.35
2023-01-04T11:44:36.480Z,13.03
2023-01-04T11:47:19.637Z,11.88
2023-01-04T11:49:48.563Z,11.02
2023-01-04T11:52:37.611Z,12.11
2023-01-04T11:55:27.961Z,13.04
2023-01-04T11:58:15.166Z,11.83
2023-01-04T12:01:01.597Z,11.25
2023-01-04T12:03:38.801Z,12.89
2023-01-04T12:06:42.900Z,12.91
2023-01-04T12:09:17.159Z,11.56
2023-01-04T12:11:54.756Z,11.83
2023-01-04T12:14:41.087Z,13.28
2023-01-04T12:17:27.556Z,12.40
2023-01-04T12:19:57.355Z,11.35
2023-01-04T12:22:40.464Z,12.14
2023-01-04T12:25:45.484Z,13.64
2023-01-04T12:28:42.131Z,12.55
2023-01-04T12:31:20.064Z,11.41
2023-01-04T12:33:50.134Z,12.38
2023-01-04T12:36:20.669Z,13.83
2023-01-04T12:38:54.943Z,13.27
2023-01-04T12:41:25.454Z,12.04
2023-01-04T12:43:54.024Z,11.85
2023-01-04T12:46:49.776Z,13.42
2023-01-04T12:49:27.558Z,13.57
2023-01-04T12:52:29.412Z,12.29
2023-01-04T12:55:01.579Z,12.17
2023-01-04T12:57:38.345Z,13.82
2023-01-04T13:00:13.051Z,13.54
2023-01-04T13:02:52.561Z,12.31
2023-01-04T13:08:12.189Z,14.16
2023-01-04T13:10:47.656Z,13.58
2023-01-04T13:13:37.506Z,12.32
2023-01-04T13:16:26.890Z,12.67
2023-01-04T13:18:58.143Z,14.43
2023-01-04T13:21:44.217Z,13.88
2023-01-04T13:24:34.501Z,12.49
2023-01-04T13:27:22.636Z,12.69
2023-01-04T13:29:52.450Z,14.27
2023-01-04T13:32:59.543Z,13.49
2023-01-04T13:35:24.864Z,12.14
2023-01-04T13:37:53.040Z,12.77
2023-01-04T13:40:25.267Z,14.37
2023-01-04T13:43:44.741Z,14.00
2023-01-04T13:46:23.703Z,12.41
2023-01-04T13:48:53.945Z,13.04
2023-01-04T13:51:37.511Z,14.44
2023-01-04T13:54:22.800Z,13.54
2023-01-04T13:56:56.024Z,12.31
2023-01-04T13:59:24.198Z,12.92
2023-01-04T14:01:53.431Z,14.52
2023-01-04T14:04:59.948Z,13.81
2023-01-04T14:07:27.458Z,12.61
2023-01-04T14:09:57.412Z,12.80
2023-01-04T14:12:26.678Z,14.50
2023-01-04T14:14:58.350Z,14.49
2023-01-04T14:17:50.163Z,13.15
2023-01-04T14:20:19.553Z,12.88
2023-01-04T14:22:46.029Z,14.52
2023-01-04T14:25:44.207Z,14.71
2023-01-04T14:28:31.755Z,13.20
2023-01-04T14:30:58.451Z,13.17
2023-01-04T14:33:32.918Z,14.78
2023-01-04T14:36:04.344Z,14.80
2023-01-04T14:38:57.194Z,13.43
2023-01-04T14:41:44.213Z,13.02
2023-01-04T14:44:17.974Z,14.80
2023-01-04T14:46:47.667Z,14.56
2023-01-04T14:49:15.254Z,13.28
2023-01-04T14:51:57.555Z,12.87
2023-01-04T14:54:26.723Z,14.48
2023-01-04T14:56:56.402Z,14.41
2023-01-04T14:59:23.872Z,13.17
2023-01-04T15:01:55.955Z,13.06
2023-01-04T15:04:23.240Z,14.59
2023-01-04T15:06:54.432Z,14.37
2023-01-04T15:09:21.287Z,13.13
2023-01-04T15:11:47.830Z,13.17
2023-01-04T15:14:14.599Z,14.71
2023-01-04T15:16:41.454Z,14.68
2023-01-04T15:19:08.656Z,13.38
2023-01-04T15:21:40.919Z,13.01
2023-01-04T15:24:09.651Z,14.56
2023-01-04T15:26:38.683Z,14.72
2023-01-04T15:29:06.299Z,13.40
2023-01-04T15:31:39.040Z,13.02
2023-01-04T15:34:09.485Z,14.61
2023-01-04T15:36:37.923Z,14.91
2023-01-04T15:39:04.845Z,13.62
2023-01-04T15:41:50.240Z,13.02
2023-01-04T15:44:16.989Z,14.52
2023-01-04T15:46:43.860Z,14.74
2023-01-04T15:49:16.622Z,13.49
2023-01-04T15:51:45.277Z,13.28
2023-01-04T15:54:13.186Z,14.75
2023-01-04T15:56:39.796Z,14.98
2023-01-04T15:59:06.567Z,13.66
2023-01-04T16:01:33.304Z,13.17
2023-01-04T16:04:00.090Z,14.55
2023-01-04T16:06:26.922Z,15.14
2023-01-04T16:08:53.704Z,13.89
2023-01-04T16:11:23.357Z,13.22
2023-01-04T16:13:52.278Z,14.56
2023-01-04T16:16:21.908Z,14.96
2023-01-04T16:18:51.809Z,13.68
2023-01-04T16:21:25.825Z,13.45
2023-01-04T16:24:04.192Z,14.96
2023-01-04T16:26:33.818Z,14.57
2023-01-04T16:29:02.198Z,13.41
2023-01-04T16:31:36.964Z,14.10
2023-01-04T16:34:04.746Z,15.37
2023-01-04T16:36:31.540Z,14.49
2023-01-04T16:38:58.330Z,13.34
2023-01-04T16:41:25.643Z,14.09
2023-01-04T16:43:55.096Z,15.43
2023-01-04T16:46:34.404Z,14.84
2023-01-04T16:49:07.220Z,13.54
2023-01-04T16:51:36.532Z,14.34
2023-01-04T16:54:07.752Z,15.54
2023-01-04T16:56:34.983Z,14.60
2023-01-04T16:59:02.389Z,13.57
2023-01-04T17:01:33.148Z,14.56
2023-01-04T17:04:06.420Z,15.64
2023-01-04T17:06:40.129Z,14.63
2023-01-04T17:09:09.793Z,13.61
2023-01-04T17:14:25.059Z,15.54
2023-01-04T17:16:52.859Z,14.35
2023-01-04T17:19:20.326Z,13.72
2023-01-04T17:21:46.982Z,15.05
2023-01-04T17:24:14.664Z,15.73
2023-01-04T17:26:41.890Z,14.53
2023-01-04T17:29:09.020Z,13.75
2023-01-04T17:31:39.155Z,14.97
2023-01-04T17:34:09.094Z,15.68
2023-01-04T17:36:37.166Z,14.44
2023-01-04T17:39:06.735Z,13.88
2023-01-04T17:41:33.907Z,15.28
2023-01-04T17:44:06.193Z,15.58
2023-01-04T17:46:36.404Z,14.26
2023-01-04T17:49:22.306Z,14.14
2023-01-04T17:51:52.132Z,15.68
2023-01-04T17:54:20.337Z,15.00
2023-01-04T17:56:46.932Z,13.82
2023-01-04T17:59:13.624Z,14.47
2023-01-04T18:01:40.640Z,15.93
2023-01-04T18:04:08.502Z,15.64
2023-01-04T18:06:36.405Z,14.26
2023-01-04T18:09:06.059Z,13.97
2023-01-04T18:11:33.566Z,15.45
2023-01-04T18:14:01.749Z,15.89
2023-01-04T18:16:31.240Z,14.57
2023-01-04T18:18:59.692Z,14.16
2023-01-04T18:21:31.351Z,15.58
2023-01-04T18:29:35.806Z,14.35
2023-01-04T18:32:02.497Z,15.81
2023-01-04T18:34:29.355Z,15.42
2023-01-04T18:36:55.882Z,14.18
2023-01-04T18:39:22.345Z,14.45
2023-01-04T18:41:48.943Z,15.83
2023-01-04T18:44:32.809Z,15.15
2023-01-04T18:47:00.646Z,14.04
2023-01-04T18:49:27.249Z,15.17
2023-01-04T18:51:53.859Z,15.96
2023-01-04T18:54:20.883Z,14.83
2023-01-04T18:56:47.708Z,14.10
2023-01-04T18:59:16.591Z,15.41
2023-01-04T19:01:43.654Z,15.69
2023-01-04T19:04:11.899Z,14.44
2023-01-04T19:06:39.745Z,14.35
2023-01-04T19:09:07.143Z,15.85
2023-01-04T19:11:35.282Z,15.81
2023-01-04T19:14:02.837Z,14.54
2023-01-04T19:16:30.394Z,14.15
2023-01-04T19:18:58.695Z,15.66
2023-01-04T19:21:28.323Z,15.98
2023-01-04T19:23:55.589Z,14.70
2023-01-04T19:26:23.014Z,14.25
2023-01-04T19:28:50.578Z,15.73
2023-01-04T19:31:19.971Z,16.24
2023-01-04T19:33:47.500Z,14.98
2023-01-04T19:36:17.085Z,14.27
2023-01-04T19:38:44.408Z,15.61
2023-01-04T19:41:26.319Z,16.12
2023-01-04T19:43:57.906Z,14.77
2023-01-04T19:46:24.671Z,14.31
2023-01-04T19:48:51.271Z,15.72
2023-01-04T19:51:18.290Z,16.02
2023-01-04T19:53:53.345Z,14.78
2023-01-04T19:56:40.060Z,14.44
2023-01-04T19:59:08.295Z,15.99
2023-01-04T20:01:36.352Z,15.96
2023-01-04T20:04:04.770Z,14.68
2023-01-04T20:06:33.269Z,14.29
2023-01-04T20:09:01.700Z,15.75
2023-01-04T20:11:29.872Z,15.70
2023-01-04T20:13:58.057Z,14.52
2023-01-04T20:16:26.424Z,14.71
2023-01-04T20:18:57.348Z,16.23
2023-01-04T20:21:25.640Z,16.07
2023-01-04T20:23:53.678Z,14.78
2023-01-04T20:26:21.776Z,14.30
2023-01-04T20:28:49.836Z,15.78
2023-01-04T20:31:19.430Z,15.97
2023-01-04T20:33:47.936Z,14.73
2023-01-04T20:36:21.769Z,14.46
2023-01-04T20:38:50.824Z,16.06
2023-01-04T20:41:21.880Z,16.36
2023-01-04T20:43:50.970Z,15.04
2023-01-04T20:46:28.737Z,14.45
2023-01-04T20:48:59.530Z,15.90
2023-01-04T20:51:29.978Z,16.01
2023-01-04T20:54:02.462Z,14.80
2023-01-04T20:56:32.535Z,14.69
2023-01-04T20:59:00.732Z,16.22
2023-01-04T21:01:28.995Z,15.98
2023-01-04T21:03:57.388Z,14.78
2023-01-04T21:06:27.399Z,14.97
2023-01-04T21:08:55.966Z,16.39
2023-01-04T21:11:25.615Z,16.04
2023-01-04T21:13:53.773Z,14.83
2023-01-04T21:16:21.940Z,14.89
2023-01-04T21:18:50.233Z,16.40
2023-01-04T21:21:19.164Z,16.06
2023-01-04T21:23:49.515Z,14.83
2023-01-04T21:26:21.296Z,15.03
2023-01-04T21:28:49.332Z,16.58
2023-01-04T21:31:24.067Z,16.30
2023-01-04T21:33:53.972Z,14.98
2023-01-04T21:36:25.708Z,14.99
2023-01-04T21:38:57.416Z,16.60
2023-01-04T21:41:26.782Z,16.44
2023-01-04T21:43:58.226Z,15.18
2023-01-04T21:46:27.297Z,14.85
2023-01-04T21:48:58.361Z,16.44
2023-01-04T21:51:30.453Z,16.56
2023-01-04T21:53:59.078Z,15.30
2023-01-04T21:56:28.143Z,14.95
2023-01-04T21:58:56.184Z,16.57
2023-01-04T22:01:31.175Z,16.45
2023-01-04T22:04:00.840Z,15.19
2023-01-04T22:06:29.290Z,15.03
2023-01-04T22:08:59.017Z,16.61
2023-01-04T22:11:27.014Z,16.60
2023-01-04T22:13:57.740Z,15.36
2023-01-04T22:16:25.969Z,15.00
2023-01-04T22:18:54.082Z,16.52
2023-01-04T22:21:26.664Z,16.63
2023-01-04T22:23:56.123Z,15.36
2023-01-04T22:26:24.478Z,15.37
2023-01-04T22:28:52.429Z,16.89
2023-01-04T22:31:20.526Z,16.87
2023-01-04T22:33:48.542Z,15.59
2023-01-04T22:36:22.726Z,15.35
2023-01-04T22:38:53.932Z,16.87
2023-01-04T22:41:24.627Z,17.13
2023-01-04T22:44:03.394Z,15.84
2023-01-04T22:46:33.929Z,15.44
2023-01-04T22:49:02.339Z,16.89
2023-01-04T22:51:31.889Z,16.96
2023-01-04T22:54:02.419Z,15.74
2023-01-04T22:56:30.440Z,15.52
2023-01-04T22:58:59.214Z,17.02
2023-01-04T23:01:32.573Z,17.31
2023-01-04T23:04:02.036Z,16.06
2023-01-04T23:06:32.040Z,15.53
2023-01-04T23:09:04.459Z,16.92
2023-01-04T23:11:35.529Z,17.53
2023-01-04T23:14:07.824Z,16.30
2023-01-04T23:16:39.038Z,15.57
2023-01-04T23:19:07.639Z,16.93
2023-01-04T23:21:36.441Z,17.42
2023-01-04T23:24:04.869Z,16.23
2023-01-04T23:26:33.893Z,15.56
2023-01-04T23:29:02.937Z,16.88
2023-01-04T23:31:32.971Z,17.36
2023-01-04T23:34:05.080Z,16.13
2023-01-04T23:36:38.659Z,15.49
2023-01-04T23:39:12.054Z,16.92
2023-01-04T23:41:47.016Z,17.19
2023-01-04T23:44:28.186Z,15.95
2023-01-04T23:47:08.507Z,15.41
2023-01-04T23:49:37.985Z,16.97
2023-01-04T23:52:07.260Z,16.88
2023-01-04T23:54:35.478Z,15.71
2023-01-04T23:57:04.643Z,15.51
2023-01-04T23:59:35.150Z,17.01
